sensor_id;sensor_type;location;lat;lon;timestamp;P1;durP1;ratioP1;P2;durP2;ratioP2
31037;SDS011;17702;47.590;7.666;2024-02-21T00:00:43;20.13;;;11.13;;
31037;SDS011;17702;47.590;7.666;2024-02-21T00:03:09;19.98;;;6.22;;
31037;SDS011;17702;47.590;7.666;2024-02-21T00:05:34;19.88;;;7.15;;
31037;SDS011;17702;47.590;7.666;2024-02-21T00:08:00;12.80;;;6.32;;
31037;SDS011;17702;47.590;7.666;2024-02-21T00:10:25;13.88;;;7.38;;
31037;SDS011;17702;47.590;7.666;2024-02-21T00:12:51;18.98;;;8.05;;
31037;SDS011;17702;47.590;7.666;2024-02-21T00:15:17;14.55;;;7.05;;
31037;SDS011;17702;47.590;7.666;2024-02-21T00:17:45;16.58;;;6.40;;
31037;SDS011;17702;47.590;7.666;2024-02-21T00:20:11;16.58;;;6.38;;
31037;SDS011;17702;47.590;7.666;2024-02-21T00:22:37;17.38;;;6.80;;
31037;SDS011;17702;47.590;7.666;2024-02-21T00:25:02;11.38;;;5.45;;
31037;SDS011;17702;47.590;7.666;2024-02-21T00:27:28;14.60;;;6.10;;
31037;SDS011;17702;47.590;7.666;2024-02-21T00:29:54;17.13;;;5.85;;
31037;SDS011;17702;47.590;7.666;2024-02-21T00:32:19;14.68;;;5.82;;
31037;SDS011;17702;47.590;7.666;2024-02-21T00:34:45;14.57;;;5.57;;
31037;SDS011;17702;47.590;7.666;2024-02-21T00:37:11;20.92;;;6.22;;
31037;SDS011;17702;47.590;7.666;2024-02-21T00:39:37;13.68;;;5.40;;
31037;SDS011;17702;47.590;7.666;2024-02-21T00:42:02;9.30;;;5.20;;
31037;SDS011;17702;47.590;7.666;2024-02-21T00:44:28;13.02;;;5.28;;
31037;SDS011;17702;47.590;7.666;2024-02-21T00:46:54;13.35;;;6.03;;
31037;SDS011;17702;47.590;7.666;2024-02-21T00:49:20;9.73;;;4.90;;
31037;SDS011;17702;47.590;7.666;2024-02-21T00:51:45;8.85;;;4.95;;
31037;SDS011;17702;47.590;7.666;2024-02-21T00:54:15;8.55;;;5.18;;
31037;SDS011;17702;47.590;7.666;2024-02-21T00:56:41;20.13;;;5.85;;
31037;SDS011;17702;47.590;7.666;2024-02-21T00:59:06;13.02;;;4.88;;
31037;SDS011;17702;47.590;7.666;2024-02-21T01:01:32;12.70;;;4.93;;
31037;SDS011;17702;47.590;7.666;2024-02-21T01:03:57;12.82;;;4.68;;
31037;SDS011;17702;47.590;7.666;2024-02-21T01:06:23;8.30;;;4.93;;
31037;SDS011;17702;47.590;7.666;2024-02-21T01:08:49;13.43;;;5.18;;
31037;SDS011;17702;47.590;7.666;2024-02-21T01:11:15;11.40;;;4.70;;
31037;SDS011;17702;47.590;7.666;2024-02-21T01:13:41;10.88;;;4.65;;
31037;SDS011;17702;47.590;7.666;2024-02-21T01:16:07;13.25;;;4.70;;
31037;SDS011;17702;47.590;7.666;2024-02-21T01:18:33;7.18;;;3.70;;
31037;SDS011;17702;47.590;7.666;2024-02-21T01:20:59;15.98;;;4.93;;
31037;SDS011;17702;47.590;7.666;2024-02-21T01:23:27;12.43;;;4.90;;
31037;SDS011;17702;47.590;7.666;2024-02-21T01:25:53;9.85;;;4.30;;
31037;SDS011;17702;47.590;7.666;2024-02-21T01:28:20;20.98;;;5.13;;
31037;SDS011;17702;47.590;7.666;2024-02-21T01:30:45;15.25;;;5.20;;
31037;SDS011;17702;47.590;7.666;2024-02-21T01:33:11;9.38;;;3.55;;
31037;SDS011;17702;47.590;7.666;2024-02-21T01:35:36;10.18;;;3.83;;
31037;SDS011;17702;47.590;7.666;2024-02-21T01:38:02;9.90;;;4.00;;
31037;SDS011;17702;47.590;7.666;2024-02-21T01:40:28;5.45;;;3.55;;
31037;SDS011;17702;47.590;7.666;2024-02-21T01:42:55;11.77;;;4.53;;
31037;SDS011;17702;47.590;7.666;2024-02-21T01:45:21;12.13;;;5.05;;
31037;SDS011;17702;47.590;7.666;2024-02-21T01:47:47;12.27;;;4.72;;
31037;SDS011;17702;47.590;7.666;2024-02-21T01:50:14;9.88;;;4.25;;
31037;SDS011;17702;47.590;7.666;2024-02-21T01:52:40;13.93;;;4.32;;
31037;SDS011;17702;47.590;7.666;2024-02-21T01:55:09;9.70;;;4.10;;
31037;SDS011;17702;47.590;7.666;2024-02-21T01:57:36;17.05;;;4.22;;
31037;SDS011;17702;47.590;7.666;2024-02-21T02:00:02;8.65;;;4.20;;
31037;SDS011;17702;47.590;7.666;2024-02-21T02:02:29;9.55;;;3.42;;
31037;SDS011;17702;47.590;7.666;2024-02-21T02:04:55;8.07;;;4.35;;
31037;SDS011;17702;47.590;7.666;2024-02-21T02:07:21;9.73;;;3.53;;
31037;SDS011;17702;47.590;7.666;2024-02-21T02:09:47;15.10;;;3.65;;
31037;SDS011;17702;47.590;7.666;2024-02-21T02:12:12;13.35;;;3.60;;
31037;SDS011;17702;47.590;7.666;2024-02-21T02:14:38;16.00;;;3.97;;
31037;SDS011;17702;47.590;7.666;2024-02-21T02:17:04;13.85;;;3.92;;
31037;SDS011;17702;47.590;7.666;2024-02-21T02:19:30;14.43;;;4.53;;
31037;SDS011;17702;47.590;7.666;2024-02-21T02:21:58;30.40;;;17.15;;
31037;SDS011;17702;47.590;7.666;2024-02-21T02:24:29;43.17;;;24.05;;
31037;SDS011;17702;47.590;7.666;2024-02-21T02:26:55;16.05;;;6.45;;
31037;SDS011;17702;47.590;7.666;2024-02-21T02:29:21;33.85;;;19.55;;
31037;SDS011;17702;47.590;7.666;2024-02-21T02:31:47;11.40;;;4.63;;
31037;SDS011;17702;47.590;7.666;2024-02-21T02:34:13;10.82;;;3.50;;
31037;SDS011;17702;47.590;7.666;2024-02-21T02:36:39;14.73;;;3.30;;
31037;SDS011;17702;47.590;7.666;2024-02-21T02:39:04;9.77;;;3.03;;
31037;SDS011;17702;47.590;7.666;2024-02-21T02:41:30;11.55;;;3.65;;
31037;SDS011;17702;47.590;7.666;2024-02-21T02:43:56;9.00;;;3.45;;
31037;SDS011;17702;47.590;7.666;2024-02-21T02:46:21;11.68;;;3.50;;
31037;SDS011;17702;47.590;7.666;2024-02-21T02:48:47;11.27;;;3.83;;
31037;SDS011;17702;47.590;7.666;2024-02-21T02:51:12;12.35;;;3.75;;
31037;SDS011;17702;47.590;7.666;2024-02-21T02:53:38;8.20;;;3.28;;
31037;SDS011;17702;47.590;7.666;2024-02-21T02:56:03;8.82;;;3.70;;
31037;SDS011;17702;47.590;7.666;2024-02-21T02:58:29;14.00;;;3.88;;
31037;SDS011;17702;47.590;7.666;2024-02-21T03:00:55;10.40;;;4.13;;
31037;SDS011;17702;47.590;7.666;2024-02-21T03:03:20;9.52;;;3.75;;
31037;SDS011;17702;47.590;7.666;2024-02-21T03:05:46;10.40;;;3.28;;
31037;SDS011;17702;47.590;7.666;2024-02-21T03:08:11;10.27;;;3.42;;
31037;SDS011;17702;47.590;7.666;2024-02-21T03:10:37;12.65;;;3.95;;
31037;SDS011;17702;47.590;7.666;2024-02-21T03:13:03;11.15;;;3.80;;
31037;SDS011;17702;47.590;7.666;2024-02-21T03:15:28;13.82;;;3.63;;
31037;SDS011;17702;47.590;7.666;2024-02-21T03:17:54;9.25;;;3.63;;
31037;SDS011;17702;47.590;7.666;2024-02-21T03:20:19;8.00;;;3.33;;
31037;SDS011;17702;47.590;7.666;2024-02-21T03:22:45;12.98;;;4.25;;
31037;SDS011;17702;47.590;7.666;2024-02-21T03:25:11;8.13;;;3.40;;
31037;SDS011;17702;47.590;7.666;2024-02-21T03:27:37;13.07;;;3.40;;
31037;SDS011;17702;47.590;7.666;2024-02-21T03:30:03;17.15;;;4.20;;
31037;SDS011;17702;47.590;7.666;2024-02-21T03:32:29;11.73;;;3.45;;
31037;SDS011;17702;47.590;7.666;2024-02-21T03:34:55;12.35;;;4.45;;
31037;SDS011;17702;47.590;7.666;2024-02-21T03:37:21;11.80;;;3.72;;
31037;SDS011;17702;47.590;7.666;2024-02-21T03:39:46;8.95;;;3.28;;
31037;SDS011;17702;47.590;7.666;2024-02-21T03:42:12;8.55;;;3.25;;
31037;SDS011;17702;47.590;7.666;2024-02-21T03:44:38;10.48;;;3.47;;
31037;SDS011;17702;47.590;7.666;2024-02-21T03:47:04;10.23;;;3.08;;
31037;SDS011;17702;47.590;7.666;2024-02-21T03:49:29;15.60;;;4.30;;
31037;SDS011;17702;47.590;7.666;2024-02-21T03:51:55;6.68;;;3.47;;
31037;SDS011;17702;47.590;7.666;2024-02-21T03:54:21;10.38;;;3.58;;
31037;SDS011;17702;47.590;7.666;2024-02-21T03:56:46;7.15;;;3.53;;
31037;SDS011;17702;47.590;7.666;2024-02-21T03:59:15;8.07;;;3.28;;
31037;SDS011;17702;47.590;7.666;2024-02-21T04:01:41;10.05;;;3.45;;
31037;SDS011;17702;47.590;7.666;2024-02-21T04:04:06;12.95;;;3.80;;
31037;SDS011;17702;47.590;7.666;2024-02-21T04:06:32;12.77;;;3.40;;
31037;SDS011;17702;47.590;7.666;2024-02-21T04:08:58;10.35;;;3.60;;
31037;SDS011;17702;47.590;7.666;2024-02-21T04:11:23;10.13;;;3.25;;
31037;SDS011;17702;47.590;7.666;2024-02-21T04:13:49;15.02;;;4.10;;
31037;SDS011;17702;47.590;7.666;2024-02-21T04:16:16;13.45;;;3.22;;
31037;SDS011;17702;47.590;7.666;2024-02-21T04:18:43;10.07;;;3.28;;
31037;SDS011;17702;47.590;7.666;2024-02-21T04:21:09;9.90;;;3.28;;
31037;SDS011;17702;47.590;7.666;2024-02-21T04:23:35;11.65;;;3.22;;
31037;SDS011;17702;47.590;7.666;2024-02-21T04:26:02;8.52;;;3.33;;
31037;SDS011;17702;47.590;7.666;2024-02-21T04:28:27;5.97;;;3.17;;
31037;SDS011;17702;47.590;7.666;2024-02-21T04:30:53;14.35;;;3.92;;
31037;SDS011;17702;47.590;7.666;2024-02-21T04:33:18;9.50;;;3.47;;
31037;SDS011;17702;47.590;7.666;2024-02-21T04:35:44;14.98;;;4.15;;
31037;SDS011;17702;47.590;7.666;2024-02-21T04:38:10;8.68;;;3.55;;
31037;SDS011;17702;47.590;7.666;2024-02-21T04:40:35;14.88;;;4.35;;
31037;SDS011;17702;47.590;7.666;2024-02-21T04:43:01;9.38;;;3.47;;
31037;SDS011;17702;47.590;7.666;2024-02-21T04:45:26;10.80;;;4.00;;
31037;SDS011;17702;47.590;7.666;2024-02-21T04:47:52;8.02;;;3.50;;
31037;SDS011;17702;47.590;7.666;2024-02-21T04:50:17;9.55;;;3.58;;
31037;SDS011;17702;47.590;7.666;2024-02-21T04:52:43;6.07;;;2.97;;
31037;SDS011;17702;47.590;7.666;2024-02-21T04:55:08;9.98;;;3.28;;
31037;SDS011;17702;47.590;7.666;2024-02-21T04:57:34;9.05;;;3.63;;
31037;SDS011;17702;47.590;7.666;2024-02-21T04:59:59;10.20;;;3.75;;
31037;SDS011;17702;47.590;7.666;2024-02-21T05:02:25;7.85;;;3.78;;
31037;SDS011;17702;47.590;7.666;2024-02-21T05:04:51;15.48;;;3.90;;
31037;SDS011;17702;47.590;7.666;2024-02-21T05:07:17;5.25;;;3.45;;
31037;SDS011;17702;47.590;7.666;2024-02-21T05:09:44;11.25;;;3.78;;
31037;SDS011;17702;47.590;7.666;2024-02-21T05:12:10;8.50;;;3.78;;
31037;SDS011;17702;47.590;7.666;2024-02-21T05:14:36;16.15;;;4.38;;
31037;SDS011;17702;47.590;7.666;2024-02-21T05:17:02;11.85;;;4.57;;
31037;SDS011;17702;47.590;7.666;2024-02-21T05:19:28;11.30;;;4.13;;
31037;SDS011;17702;47.590;7.666;2024-02-21T05:21:54;9.32;;;4.20;;
31037;SDS011;17702;47.590;7.666;2024-02-21T05:24:19;10.57;;;3.88;;
31037;SDS011;17702;47.590;7.666;2024-02-21T05:26:45;16.60;;;4.15;;
31037;SDS011;17702;47.590;7.666;2024-02-21T05:29:11;15.25;;;4.47;;
31037;SDS011;17702;47.590;7.666;2024-02-21T05:34:21;9.13;;;3.72;;
31037;SDS011;17702;47.590;7.666;2024-02-21T05:36:47;4.03;;;3.22;;
31037;SDS011;17702;47.590;7.666;2024-02-21T05:39:14;14.40;;;4.50;;
31037;SDS011;17702;47.590;7.666;2024-02-21T05:41:41;10.32;;;3.90;;
31037;SDS011;17702;47.590;7.666;2024-02-21T05:44:07;10.95;;;3.67;;
31037;SDS011;17702;47.590;7.666;2024-02-21T05:46:33;8.75;;;3.78;;
31037;SDS011;17702;47.590;7.666;2024-02-21T05:48:58;11.13;;;3.75;;
31037;SDS011;17702;47.590;7.666;2024-02-21T05:51:24;10.73;;;3.50;;
31037;SDS011;17702;47.590;7.666;2024-02-21T05:53:49;8.60;;;3.72;;
31037;SDS011;17702;47.590;7.666;2024-02-21T05:56:15;11.35;;;3.60;;
31037;SDS011;17702;47.590;7.666;2024-02-21T05:58:42;10.02;;;3.92;;
31037;SDS011;17702;47.590;7.666;2024-02-21T06:01:07;10.18;;;4.00;;
31037;SDS011;17702;47.590;7.666;2024-02-21T06:03:33;11.40;;;5.00;;
31037;SDS011;17702;47.590;7.666;2024-02-21T06:05:59;13.35;;;4.15;;
31037;SDS011;17702;47.590;7.666;2024-02-21T06:08:26;9.90;;;3.78;;
31037;SDS011;17702;47.590;7.666;2024-02-21T06:10:51;7.10;;;4.18;;
31037;SDS011;17702;47.590;7.666;2024-02-21T06:13:19;11.50;;;4.10;;
31037;SDS011;17702;47.590;7.666;2024-02-21T06:15:48;9.18;;;3.67;;
31037;SDS011;17702;47.590;7.666;2024-02-21T06:18:15;9.20;;;4.22;;
31037;SDS011;17702;47.590;7.666;2024-02-21T06:20:42;8.13;;;3.97;;
31037;SDS011;17702;47.590;7.666;2024-02-21T06:23:08;6.25;;;4.32;;
31037;SDS011;17702;47.590;7.666;2024-02-21T06:25:34;14.40;;;4.43;;
31037;SDS011;17702;47.590;7.666;2024-02-21T06:28:00;13.00;;;3.40;;
31037;SDS011;17702;47.590;7.666;2024-02-21T06:30:25;11.70;;;3.85;;
31037;SDS011;17702;47.590;7.666;2024-02-21T06:32:51;6.20;;;4.43;;
31037;SDS011;17702;47.590;7.666;2024-02-21T06:35:17;12.00;;;4.85;;
31037;SDS011;17702;47.590;7.666;2024-02-21T06:37:43;10.60;;;4.93;;
31037;SDS011;17702;47.590;7.666;2024-02-21T06:40:10;8.82;;;4.28;;
31037;SDS011;17702;47.590;7.666;2024-02-21T06:42:38;7.70;;;4.57;;
31037;SDS011;17702;47.590;7.666;2024-02-21T06:45:04;9.63;;;4.50;;
31037;SDS011;17702;47.590;7.666;2024-02-21T06:47:30;7.72;;;4.20;;
31037;SDS011;17702;47.590;7.666;2024-02-21T06:49:55;8.05;;;3.80;;
31037;SDS011;17702;47.590;7.666;2024-02-21T06:52:21;10.00;;;4.22;;
31037;SDS011;17702;47.590;7.666;2024-02-21T06:54:47;11.35;;;4.53;;
31037;SDS011;17702;47.590;7.666;2024-02-21T06:57:13;12.45;;;4.80;;
31037;SDS011;17702;47.590;7.666;2024-02-21T06:59:40;9.43;;;5.30;;
31037;SDS011;17702;47.590;7.666;2024-02-21T07:02:06;12.13;;;5.22;;
31037;SDS011;17702;47.590;7.666;2024-02-21T07:04:31;11.20;;;5.95;;
31037;SDS011;17702;47.590;7.666;2024-02-21T07:06:57;13.48;;;5.90;;
31037;SDS011;17702;47.590;7.666;2024-02-21T07:09:23;15.70;;;5.35;;
31037;SDS011;17702;47.590;7.666;2024-02-21T07:11:48;11.23;;;5.35;;
31037;SDS011;17702;47.590;7.666;2024-02-21T07:14:14;15.68;;;5.40;;
31037;SDS011;17702;47.590;7.666;2024-02-21T07:16:40;13.88;;;6.00;;
31037;SDS011;17702;47.590;7.666;2024-02-21T07:19:06;10.20;;;5.60;;
31037;SDS011;17702;47.590;7.666;2024-02-21T07:21:31;12.27;;;5.68;;
31037;SDS011;17702;47.590;7.666;2024-02-21T07:23:57;16.83;;;5.97;;
31037;SDS011;17702;47.590;7.666;2024-02-21T07:26:23;16.38;;;6.10;;
31037;SDS011;17702;47.590;7.666;2024-02-21T07:28:48;10.95;;;6.07;;
31037;SDS011;17702;47.590;7.666;2024-02-21T07:31:14;14.35;;;6.80;;
31037;SDS011;17702;47.590;7.666;2024-02-21T07:33:40;16.83;;;6.55;;
31037;SDS011;17702;47.590;7.666;2024-02-21T07:36:10;12.45;;;6.15;;
31037;SDS011;17702;47.590;7.666;2024-02-21T07:38:36;15.05;;;6.82;;
31037;SDS011;17702;47.590;7.666;2024-02-21T07:41:02;14.15;;;6.57;;
31037;SDS011;17702;47.590;7.666;2024-02-21T07:43:29;12.98;;;5.95;;
31037;SDS011;17702;47.590;7.666;2024-02-21T07:45:54;17.85;;;6.45;;
31037;SDS011;17702;47.590;7.666;2024-02-21T07:48:20;14.25;;;6.40;;
31037;SDS011;17702;47.590;7.666;2024-02-21T07:50:49;10.23;;;6.70;;
31037;SDS011;17702;47.590;7.666;2024-02-21T07:53:15;12.57;;;6.03;;
31037;SDS011;17702;47.590;7.666;2024-02-21T07:55:41;11.27;;;6.00;;
31037;SDS011;17702;47.590;7.666;2024-02-21T07:58:06;17.05;;;6.25;;
31037;SDS011;17702;47.590;7.666;2024-02-21T08:00:32;15.38;;;6.90;;
31037;SDS011;17702;47.590;7.666;2024-02-21T08:02:58;15.73;;;6.65;;
31037;SDS011;17702;47.590;7.666;2024-02-21T08:05:24;13.40;;;6.53;;
31037;SDS011;17702;47.590;7.666;2024-02-21T08:07:49;15.50;;;7.10;;
31037;SDS011;17702;47.590;7.666;2024-02-21T08:10:15;16.90;;;7.53;;
31037;SDS011;17702;47.590;7.666;2024-02-21T08:12:40;17.73;;;7.75;;
31037;SDS011;17702;47.590;7.666;2024-02-21T08:15:06;18.52;;;7.65;;
31037;SDS011;17702;47.590;7.666;2024-02-21T08:17:37;18.08;;;7.88;;
31037;SDS011;17702;47.590;7.666;2024-02-21T08:20:03;20.33;;;8.32;;
31037;SDS011;17702;47.590;7.666;2024-02-21T08:22:29;14.05;;;7.20;;
31037;SDS011;17702;47.590;7.666;2024-02-21T08:24:55;18.88;;;8.05;;
31037;SDS011;17702;47.590;7.666;2024-02-21T08:27:20;14.93;;;7.38;;
31037;SDS011;17702;47.590;7.666;2024-02-21T08:29:46;14.85;;;7.13;;
31037;SDS011;17702;47.590;7.666;2024-02-21T08:32:12;14.40;;;7.45;;
31037;SDS011;17702;47.590;7.666;2024-02-21T08:34:37;16.33;;;7.88;;
31037;SDS011;17702;47.590;7.666;2024-02-21T08:37:03;16.73;;;7.85;;
31037;SDS011;17702;47.590;7.666;2024-02-21T08:39:29;15.98;;;7.40;;
31037;SDS011;17702;47.590;7.666;2024-02-21T08:41:55;16.63;;;7.55;;
31037;SDS011;17702;47.590;7.666;2024-02-21T08:44:25;15.23;;;7.30;;
31037;SDS011;17702;47.590;7.666;2024-02-21T08:46:52;13.00;;;6.45;;
31037;SDS011;17702;47.590;7.666;2024-02-21T08:49:18;12.73;;;7.03;;
31037;SDS011;17702;47.590;7.666;2024-02-21T08:51:43;15.25;;;6.80;;
31037;SDS011;17702;47.590;7.666;2024-02-21T08:54:09;15.20;;;7.22;;
31037;SDS011;17702;47.590;7.666;2024-02-21T08:56:35;16.65;;;7.28;;
31037;SDS011;17702;47.590;7.666;2024-02-21T08:59:01;12.57;;;6.88;;
31037;SDS011;17702;47.590;7.666;2024-02-21T09:01:27;12.85;;;6.65;;
31037;SDS011;17702;47.590;7.666;2024-02-21T09:03:52;12.98;;;6.43;;
31037;SDS011;17702;47.590;7.666;2024-02-21T09:06:18;9.50;;;6.78;;
31037;SDS011;17702;47.590;7.666;2024-02-21T09:08:45;10.02;;;4.80;;
31037;SDS011;17702;47.590;7.666;2024-02-21T09:11:11;9.95;;;6.10;;
31037;SDS011;17702;47.590;7.666;2024-02-21T09:13:37;10.77;;;5.85;;
31037;SDS011;17702;47.590;7.666;2024-02-21T09:16:02;12.07;;;6.13;;
31037;SDS011;17702;47.590;7.666;2024-02-21T09:18:28;15.05;;;6.03;;
31037;SDS011;17702;47.590;7.666;2024-02-21T09:20:54;11.25;;;5.68;;
31037;SDS011;17702;47.590;7.666;2024-02-21T09:23:20;12.50;;;5.38;;
31037;SDS011;17702;47.590;7.666;2024-02-21T09:25:48;22.25;;;11.90;;
31037;SDS011;17702;47.590;7.666;2024-02-21T09:28:14;7.13;;;4.60;;
31037;SDS011;17702;47.590;7.666;2024-02-21T09:30:39;20.20;;;11.93;;
31037;SDS011;17702;47.590;7.666;2024-02-21T09:33:05;14.13;;;6.63;;
31037;SDS011;17702;47.590;7.666;2024-02-21T09:35:30;10.63;;;5.72;;
31037;SDS011;17702;47.590;7.666;2024-02-21T09:37:58;9.52;;;4.75;;
31037;SDS011;17702;47.590;7.666;2024-02-21T09:40:24;12.75;;;5.10;;
31037;SDS011;17702;47.590;7.666;2024-02-21T09:42:50;8.88;;;5.18;;
31037;SDS011;17702;47.590;7.666;2024-02-21T09:45:37;6.97;;;5.28;;
31037;SDS011;17702;47.590;7.666;2024-02-21T09:48:19;5.43;;;3.50;;
31037;SDS011;17702;47.590;7.666;2024-02-21T09:50:49;12.70;;;5.20;;
31037;SDS011;17702;47.590;7.666;2024-02-21T09:53:16;9.13;;;4.85;;
31037;SDS011;17702;47.590;7.666;2024-02-21T09:55:43;10.18;;;5.68;;
31037;SDS011;17702;47.590;7.666;2024-02-21T09:58:09;10.77;;;5.05;;
31037;SDS011;17702;47.590;7.666;2024-02-21T10:00:36;7.05;;;4.72;;
31037;SDS011;17702;47.590;7.666;2024-02-21T10:03:02;11.40;;;5.15;;
31037;SDS011;17702;47.590;7.666;2024-02-21T10:05:36;9.85;;;5.00;;
31037;SDS011;17702;47.590;7.666;2024-02-21T10:08:02;6.15;;;4.97;;
31037;SDS011;17702;47.590;7.666;2024-02-21T10:10:29;7.38;;;4.72;;
31037;SDS011;17702;47.590;7.666;2024-02-21T10:12:55;9.48;;;3.75;;
31037;SDS011;17702;47.590;7.666;2024-02-21T10:15:22;7.22;;;4.55;;
31037;SDS011;17702;47.590;7.666;2024-02-21T10:17:49;9.10;;;4.88;;
31037;SDS011;17702;47.590;7.666;2024-02-21T10:20:23;6.90;;;4.45;;
31037;SDS011;17702;47.590;7.666;2024-02-21T10:22:48;8.13;;;4.72;;
31037;SDS011;17702;47.590;7.666;2024-02-21T10:25:24;5.53;;;4.30;;
31037;SDS011;17702;47.590;7.666;2024-02-21T10:27:50;9.23;;;5.32;;
31037;SDS011;17702;47.590;7.666;2024-02-21T10:30:16;8.50;;;4.60;;
31037;SDS011;17702;47.590;7.666;2024-02-21T10:32:51;6.53;;;4.78;;
31037;SDS011;17702;47.590;7.666;2024-02-21T10:35:31;7.18;;;4.78;;
31037;SDS011;17702;47.590;7.666;2024-02-21T10:37:58;7.28;;;4.40;;
31037;SDS011;17702;47.590;7.666;2024-02-21T10:40:28;6.30;;;4.38;;
31037;SDS011;17702;47.590;7.666;2024-02-21T10:42:58;6.05;;;3.47;;
31037;SDS011;17702;47.590;7.666;2024-02-21T10:45:27;11.73;;;4.60;;
31037;SDS011;17702;47.590;7.666;2024-02-21T10:47:55;4.75;;;4.35;;
31037;SDS011;17702;47.590;7.666;2024-02-21T10:50:24;9.90;;;4.40;;
31037;SDS011;17702;47.590;7.666;2024-02-21T10:52:56;9.63;;;4.22;;
31037;SDS011;17702;47.590;7.666;2024-02-21T10:55:45;9.13;;;4.75;;
31037;SDS011;17702;47.590;7.666;2024-02-21T10:58:19;6.85;;;3.85;;
31037;SDS011;17702;47.590;7.666;2024-02-21T11:00:45;9.32;;;3.90;;
31037;SDS011;17702;47.590;7.666;2024-02-21T11:03:11;9.65;;;4.65;;
31037;SDS011;17702;47.590;7.666;2024-02-21T11:05:38;4.50;;;3.83;;
31037;SDS011;17702;47.590;7.666;2024-02-21T11:08:05;5.63;;;3.67;;
31037;SDS011;17702;47.590;7.666;2024-02-21T11:10:31;7.43;;;3.22;;
31037;SDS011;17702;47.590;7.666;2024-02-21T11:13:09;7.00;;;3.47;;
31037;SDS011;17702;47.590;7.666;2024-02-21T11:15:34;5.97;;;3.55;;
31037;SDS011;17702;47.590;7.666;2024-02-21T11:18:00;8.93;;;3.75;;
31037;SDS011;17702;47.590;7.666;2024-02-21T11:20:32;4.88;;;3.50;;
31037;SDS011;17702;47.590;7.666;2024-02-21T11:22:59;6.05;;;3.65;;
31037;SDS011;17702;47.590;7.666;2024-02-21T11:25:25;5.97;;;3.53;;
31037;SDS011;17702;47.590;7.666;2024-02-21T11:27:58;7.55;;;3.63;;
31037;SDS011;17702;47.590;7.666;2024-02-21T11:30:31;3.67;;;3.38;;
31037;SDS011;17702;47.590;7.666;2024-02-21T11:33:05;9.70;;;3.90;;
31037;SDS011;17702;47.590;7.666;2024-02-21T11:35:32;6.30;;;3.42;;
31037;SDS011;17702;47.590;7.666;2024-02-21T11:38:11;4.97;;;4.32;;
31037;SDS011;17702;47.590;7.666;2024-02-21T11:40:41;5.75;;;2.88;;
31037;SDS011;17702;47.590;7.666;2024-02-21T11:43:11;6.80;;;3.13;;
31037;SDS011;17702;47.590;7.666;2024-02-21T11:45:36;5.95;;;3.20;;
31037;SDS011;17702;47.590;7.666;2024-02-21T11:48:02;5.78;;;3.17;;
31037;SDS011;17702;47.590;7.666;2024-02-21T11:50:30;12.85;;;3.63;;
31037;SDS011;17702;47.590;7.666;2024-02-21T11:52:56;4.82;;;3.30;;
31037;SDS011;17702;47.590;7.666;2024-02-21T11:55:22;4.25;;;3.05;;
31037;SDS011;17702;47.590;7.666;2024-02-21T11:57:48;5.90;;;3.22;;
31037;SDS011;17702;47.590;7.666;2024-02-21T12:00:14;7.43;;;2.88;;
31037;SDS011;17702;47.590;7.666;2024-02-21T12:02:42;5.18;;;3.78;;
31037;SDS011;17702;47.590;7.666;2024-02-21T12:05:08;4.88;;;3.20;;
31037;SDS011;17702;47.590;7.666;2024-02-21T12:07:35;6.63;;;3.35;;
31037;SDS011;17702;47.590;7.666;2024-02-21T12:10:06;4.13;;;2.87;;
31037;SDS011;17702;47.590;7.666;2024-02-21T12:12:35;7.28;;;2.97;;
31037;SDS011;17702;47.590;7.666;2024-02-21T12:15:03;3.85;;;2.03;;
31037;SDS011;17702;47.590;7.666;2024-02-21T12:17:30;6.32;;;2.80;;
31037;SDS011;17702;47.590;7.666;2024-02-21T12:19:58;5.13;;;2.70;;
31037;SDS011;17702;47.590;7.666;2024-02-21T12:22:25;5.30;;;2.83;;
31037;SDS011;17702;47.590;7.666;2024-02-21T12:24:50;2.80;;;2.05;;
31037;SDS011;17702;47.590;7.666;2024-02-21T12:27:16;3.78;;;1.90;;
31037;SDS011;17702;47.590;7.666;2024-02-21T12:29:41;3.55;;;1.67;;
31037;SDS011;17702;47.590;7.666;2024-02-21T12:32:07;3.33;;;1.35;;
31037;SDS011;17702;47.590;7.666;2024-02-21T12:34:32;2.00;;;1.33;;
31037;SDS011;17702;47.590;7.666;2024-02-21T12:36:58;2.58;;;1.48;;
31037;SDS011;17702;47.590;7.666;2024-02-21T12:39:24;1.65;;;1.23;;
31037;SDS011;17702;47.590;7.666;2024-02-21T12:41:52;5.82;;;1.88;;
31037;SDS011;17702;47.590;7.666;2024-02-21T12:44:19;3.92;;;1.73;;
31037;SDS011;17702;47.590;7.666;2024-02-21T12:46:44;3.38;;;1.58;;
31037;SDS011;17702;47.590;7.666;2024-02-21T12:49:10;3.70;;;2.03;;
31037;SDS011;17702;47.590;7.666;2024-02-21T12:51:36;3.28;;;1.48;;
31037;SDS011;17702;47.590;7.666;2024-02-21T12:54:03;4.18;;;1.90;;
31037;SDS011;17702;47.590;7.666;2024-02-21T12:56:28;4.63;;;1.65;;
31037;SDS011;17702;47.590;7.666;2024-02-21T12:58:55;2.63;;;2.10;;
31037;SDS011;17702;47.590;7.666;2024-02-21T13:01:21;4.68;;;2.40;;
31037;SDS011;17702;47.590;7.666;2024-02-21T13:03:47;6.40;;;2.55;;
31037;SDS011;17702;47.590;7.666;2024-02-21T13:06:13;2.97;;;2.22;;
31037;SDS011;17702;47.590;7.666;2024-02-21T13:08:39;7.45;;;2.25;;
31037;SDS011;17702;47.590;7.666;2024-02-21T13:11:05;10.88;;;2.70;;
31037;SDS011;17702;47.590;7.666;2024-02-21T13:13:30;3.72;;;1.95;;
31037;SDS011;17702;47.590;7.666;2024-02-21T13:15:57;3.10;;;2.08;;
31037;SDS011;17702;47.590;7.666;2024-02-21T13:18:23;5.43;;;2.25;;
31037;SDS011;17702;47.590;7.666;2024-02-21T13:20:48;5.60;;;2.38;;
31037;SDS011;17702;47.590;7.666;2024-02-21T13:23:14;5.40;;;2.90;;
31037;SDS011;17702;47.590;7.666;2024-02-21T13:25:39;4.45;;;2.25;;
31037;SDS011;17702;47.590;7.666;2024-02-21T13:28:05;12.73;;;3.30;;
31037;SDS011;17702;47.590;7.666;2024-02-21T13:30:31;11.55;;;9.18;;
31037;SDS011;17702;47.590;7.666;2024-02-21T13:32:57;3.40;;;3.10;;
31037;SDS011;17702;47.590;7.666;2024-02-21T13:35:23;8.25;;;4.18;;
31037;SDS011;17702;47.590;7.666;2024-02-21T13:37:48;5.85;;;2.95;;
31037;SDS011;17702;47.590;7.666;2024-02-21T13:40:15;3.55;;;2.50;;
31037;SDS011;17702;47.590;7.666;2024-02-21T13:42:41;3.47;;;2.20;;
31037;SDS011;17702;47.590;7.666;2024-02-21T13:45:08;3.72;;;1.90;;
31037;SDS011;17702;47.590;7.666;2024-02-21T13:47:34;3.58;;;1.52;;
31037;SDS011;17702;47.590;7.666;2024-02-21T13:50:01;5.18;;;1.75;;
31037;SDS011;17702;47.590;7.666;2024-02-21T13:52:29;3.10;;;1.60;;
31037;SDS011;17702;47.590;7.666;2024-02-21T13:54:56;4.22;;;2.15;;
31037;SDS011;17702;47.590;7.666;2024-02-21T13:57:22;4.20;;;1.63;;
31037;SDS011;17702;47.590;7.666;2024-02-21T13:59:48;2.33;;;1.65;;
31037;SDS011;17702;47.590;7.666;2024-02-21T14:02:13;3.10;;;1.70;;
31037;SDS011;17702;47.590;7.666;2024-02-21T14:04:39;2.40;;;1.40;;
31037;SDS011;17702;47.590;7.666;2024-02-21T14:07:05;6.68;;;2.17;;
31037;SDS011;17702;47.590;7.666;2024-02-21T14:09:30;2.13;;;1.92;;
31037;SDS011;17702;47.590;7.666;2024-02-21T14:11:58;3.83;;;1.83;;
31037;SDS011;17702;47.590;7.666;2024-02-21T14:14:23;1.98;;;1.77;;
31037;SDS011;17702;47.590;7.666;2024-02-21T14:16:49;2.00;;;1.50;;
31037;SDS011;17702;47.590;7.666;2024-02-21T14:19:14;2.25;;;2.05;;
31037;SDS011;17702;47.590;7.666;2024-02-21T14:21:40;9.13;;;4.72;;
31037;SDS011;17702;47.590;7.666;2024-02-21T14:24:06;7.18;;;2.72;;
31037;SDS011;17702;47.590;7.666;2024-02-21T14:26:31;6.13;;;2.35;;
31037;SDS011;17702;47.590;7.666;2024-02-21T14:28:57;3.47;;;1.98;;
31037;SDS011;17702;47.590;7.666;2024-02-21T14:31:23;3.85;;;2.10;;
31037;SDS011;17702;47.590;7.666;2024-02-21T14:33:50;4.75;;;1.95;;
31037;SDS011;17702;47.590;7.666;2024-02-21T14:36:15;4.85;;;2.53;;
31037;SDS011;17702;47.590;7.666;2024-02-21T14:38:41;6.13;;;2.28;;